首页
METAR-TAF:

METAR-TAF

机场 :

石油平台

Goeree Le, 荷兰

纬度: 51-55-33N, 经度: 3-40-12E, 海拔: 19米

当前天气观测

该预报发布于10分钟前的08:55 UTC
风速11节,风向东转东北
温度 15°C
湿度 77%
气压 1022 hPa
能见度10公里或以上

METAR: EHSC 010855Z AUTO 06011KT 9999 ///////// 15/11 Q1022 W14/H6

时间: 11:05 (09:05 UTC)


TAF: 丢失

超过4000个机场的气象观测和天气预报(METAR&TAF报告)。

可查询的气象台以黄色和红色小点在地图上表示。

将鼠标移到小点上方,可查看气象台名称。

然后点击查看天气观测和预报。

如需切换地图:点击带黑十字的绿色按钮放大地图;点击带横线的绿色按钮缩小地图;或者点击绿色箭头查看邻近地区的地图。


METAR-TAF: